| time (UTC) | temp F | wind direction | speed MPH | gust MPH | rain 1hr in | rain 24hr in | rain mn in | humidity % | barometer mb |
| 20260509105130 | 60 | 89 | 0.0 | 1.0 | 0.00 | 0.07 | 0.07 | 95 | 1012.6 |
| 20260509104627 | 60 | 40 | 1.0 | 2.0 | 0.00 | 0.07 | 0.07 | 95 | 1012.5 |
| 20260509104124 | 60 | 109 | 2.0 | 2.0 | 0.00 | 0.07 | 0.07 | 95 | 1012.6 |
| 20260509103622 | 60 | 91 | 1.0 | 2.0 | 0.00 | 0.07 | 0.07 | 95 | 1012.8 |
| 20260509103120 | 60 | 113 | 0.0 | 2.0 | 0.00 | 0.07 | 0.07 | 95 | 1012.4 |
| 20260509102617 | 60 | 52 | 0.0 | 3.0 | 0.00 | 0.07 | 0.07 | 95 | 1012.4 |
| 20260509102114 | 60 | 95 | 2.0 | 3.0 | 0.00 | 0.07 | 0.07 | 95 | 1012.4 |
| 20260509101610 | 60 | 107 | 1.0 | 3.0 | 0.00 | 0.07 | 0.07 | 95 | 1012.4 |
| 20260509101107 | 60 | 82 | 2.0 | 3.0 | 0.00 | 0.07 | 0.07 | 95 | 1012.6 |
| 20260509100604 | 60 | 85 | 1.0 | 2.0 | 0.00 | 0.07 | 0.07 | 95 | 1012.9 |
| 20260509095557 | 60 | 343 | 0.0 | 3.0 | 0.00 | 0.07 | 0.07 | 95 | 1012.4 |
| 20260509095055 | 60 | 197 | 0.0 | 2.0 | 0.00 | 0.07 | 0.07 | 95 | 1012.2 |
| 20260509094551 | 60 | 89 | 0.0 | 2.0 | 0.00 | 0.07 | 0.07 | 95 | 1012.0 |
| 20260509094049 | 60 | 249 | 0.0 | 2.0 | 0.00 | 0.07 | 0.07 | 95 | 1011.9 |
| 20260509093547 | 60 | 279 | 0.0 | 3.0 | 0.00 | 0.07 | 0.07 | 95 | 1011.6 |
| 20260509093044 | 60 | 98 | 0.0 | 3.0 | 0.00 | 0.07 | 0.07 | 95 | 1011.2 |
| 20260509092542 | 60 | 126 | 2.0 | 3.0 | 0.00 | 0.07 | 0.07 | 95 | 1011.2 |
| 20260509092040 | 60 | 138 | 1.0 | 2.0 | 0.00 | 0.07 | 0.07 | 95 | 1011.3 |
| 20260509091537 | 60 | 104 | 0.0 | 2.0 | 0.00 | 0.07 | 0.07 | 94 | 1011.0 |
| 20260509091034 | 60 | 113 | 1.0 | 3.0 | 0.00 | 0.07 | 0.07 | 94 | 1011.3 |
| 20260509090531 | 60 | 116 | 1.0 | 2.0 | 0.00 | 0.07 | 0.07 | 94 | 1011.2 |
| 20260509090029 | 60 | 89 | 0.0 | 2.0 | 0.00 | 0.07 | 0.07 | 94 | 1011.1 |
| 20260509085526 | 60 | 89 | 0.0 | 2.0 | 0.00 | 0.07 | 0.07 | 94 | 1011.3 |
| 20260509085022 | 60 | 51 | 0.0 | 2.0 | 0.00 | 0.07 | 0.07 | 94 | 1011.0 |
| 20260509084519 | 60 | 120 | 2.0 | 6.0 | 0.00 | 0.07 | 0.07 | 94 | 1010.9 |
| 20260509084016 | 60 | 117 | 2.0 | 3.0 | 0.00 | 0.07 | 0.07 | 94 | 1011.0 |
| 20260509083513 | 60 | 124 | 3.0 | 4.0 | 0.00 | 0.07 | 0.07 | 94 | 1011.0 |
| 20260509083010 | 60 | 153 | 0.0 | 3.0 | 0.00 | 0.07 | 0.07 | 94 | 1011.4 |
| 20260509082508 | 60 | 113 | 2.0 | 3.0 | 0.05 | 0.07 | 0.07 | 93 | 1011.5 |
| 20260509082004 | 60 | 122 | 2.0 | 3.0 | 0.14 | 0.07 | 0.07 | 93 | 1011.6 |
| 20260509081502 | 60 | 120 | 1.0 | 4.0 | 0.21 | 0.07 | 0.07 | 93 | 1011.7 |
| 20260509080958 | 60 | 106 | 2.0 | 3.0 | 0.19 | 0.05 | 0.05 | 93 | 1012.4 |
| 20260509080456 | 60 | 99 | 2.0 | 2.0 | 0.12 | 0.03 | 0.03 | 93 | 1012.6 |
| 20260509075954 | 60 | 76 | 2.0 | 3.0 | 0.12 | 0.02 | 0.02 | 92 | 1012.8 |
| 20260509075451 | 60 | 101 | 1.0 | 2.0 | 0.05 | 0.01 | 0.01 | 92 | 1012.9 |
| 20260509074949 | 60 | 98 | 2.0 | 3.0 | 0.00 | 0.00 | 0.00 | 92 | 1013.0 |
| 20260509074446 | 59 | 109 | 1.0 | 3.0 | 0.00 | 0.00 | 0.00 | 92 | 1013.2 |
| 20260509073942 | 59 | 97 | 0.0 | 5.0 | 0.00 | 0.00 | 0.00 | 92 | 1013.3 |
| 20260509073439 | 59 | 101 | 1.0 | 3.0 | 0.00 | 0.00 | 0.00 | 92 | 1013.3 |
| 20260509072935 | 59 | 89 | 0.0 | 2.0 | 0.00 | 0.00 | 0.00 | 92 | 1013.7 |
| 20260509072432 | 59 | 296 | 4.0 | 6.0 | 0.00 | 0.00 | 0.00 | 92 | 1013.6 |
| 20260509071929 | 60 | 74 | 2.0 | 3.0 | 0.00 | 0.00 | 0.00 | 92 | 1013.4 |
| 20260509071426 | 59 | 324 | 0.0 | 1.0 | 0.00 | 0.00 | 0.00 | 92 | 1012.9 |
| 20260509070923 | 59 | 46 | 2.0 | 2.0 | 0.00 | 0.00 | 0.00 | 92 | 1012.7 |
| 20260509070420 | 59 | 31 | 1.0 | 1.0 | 0.00 | 0.00 | 0.00 | 92 | 1012.7 |
| 20260509065915 | 59 | 135 | 0.0 | 2.0 | 0.00 | 0.00 | 0.00 | 92 | 1012.4 |
| 20260509065412 | 59 | 103 | 0.0 | 2.0 | 0.00 | 0.00 | 0.00 | 92 | 1012.4 |
| 20260509064908 | 59 | 152 | 2.0 | 3.0 | 0.00 | 0.00 | 0.00 | 92 | 1012.3 |
| 20260509064406 | 59 | 113 | 2.0 | 2.0 | 0.00 | 0.00 | 0.00 | 92 | 1012.3 |
| 20260509063903 | 59 | 108 | 1.0 | 2.0 | 0.00 | 0.00 | 0.00 | 92 | 1012.5 |
| 20260509063359 | 59 | 107 | 1.0 | 3.0 | 0.00 | 0.00 | 0.00 | 92 | 1012.3 |
| 20260509062856 | 59 | 110 | 2.0 | 3.0 | 0.00 | 0.00 | 0.00 | 92 | 1012.5 |
| 20260509062353 | 59 | 108 | 2.0 | 3.0 | 0.00 | 0.00 | 0.00 | 92 | 1012.6 |
| 20260509061851 | 58 | 104 | 2.0 | 5.0 | 0.00 | 0.00 | 0.00 | 92 | 1012.6 |
| 20260509061349 | 58 | 111 | 1.0 | 2.0 | 0.00 | 0.00 | 0.00 | 92 | 1012.6 |
| 20260509060845 | 58 | 123 | 1.0 | 3.0 | 0.00 | 0.00 | 0.00 | 92 | 1012.5 |
| 20260509060342 | 58 | 113 | 2.0 | 3.0 | 0.00 | 0.00 | 0.00 | 92 | 1012.5 |
| 20260509055837 | 58 | 111 | 2.0 | 4.0 | 0.00 | 0.00 | 0.00 | 92 | 1012.5 |
| 20260509055333 | 57 | 141 | 3.0 | 5.0 | 0.00 | 0.00 | 0.00 | 92 | 1012.6 |
| 20260509054831 | 57 | 126 | 3.0 | 4.0 | 0.00 | 0.00 | 0.00 | 92 | 1012.5 |
| 20260509054327 | 57 | 136 | 3.0 | 4.0 | 0.00 | 0.00 | 0.00 | 92 | 1012.7 |
| 20260509053826 | 57 | 143 | 2.0 | 3.0 | 0.00 | 0.00 | 0.00 | 91 | 1012.9 |
| 20260509053322 | 57 | 149 | 2.0 | 3.0 | 0.00 | 0.00 | 0.00 | 91 | 1012.8 |
| 20260509052821 | 57 | 115 | 2.0 | 3.0 | 0.00 | 0.00 | 0.00 | 91 | 1012.8 |
| 20260509052318 | 57 | 146 | 2.0 | 2.0 | 0.00 | 0.00 | 0.00 | 90 | 1013.0 |
| 20260509051815 | 57 | 125 | 1.0 | 2.0 | 0.00 | 0.00 | 0.00 | 90 | 1013.0 |
| 20260509051313 | 57 | 123 | 1.0 | 2.0 | 0.00 | 0.00 | 0.00 | 89 | 1013.3 |
| 20260509050810 | 57 | 108 | 1.0 | 2.0 | 0.00 | 0.00 | 0.00 | 89 | 1013.2 |
| 20260509050306 | 57 | 131 | 1.0 | 2.0 | 0.00 | 0.00 | 0.00 | 89 | 1013.2 |
| 20260509045804 | 57 | 142 | 0.0 | 1.0 | 0.00 | 0.00 | 0.00 | 89 | 1013.1 |
| 20260509045300 | 58 | 98 | 2.0 | 2.0 | 0.00 | 0.00 | 0.00 | 89 | 1013.2 |
| 20260509044757 | 58 | 104 | 0.0 | 1.0 | 0.00 | 0.00 | 0.00 | 89 | 1013.4 |
| 20260509044255 | 58 | 309 | 0.0 | 1.0 | 0.00 | 0.00 | 0.00 | 89 | 1013.5 |
| 20260509043751 | 58 | 25 | 0.0 | 1.0 | 0.00 | 0.00 | 0.00 | 89 | 1013.3 |
| 20260509043247 | 58 | 164 | 0.0 | 1.0 | 0.00 | 0.00 | 0.00 | 89 | 1013.4 |
| 20260509042743 | 58 | 62 | 0.0 | 2.0 | 0.00 | 0.00 | 0.00 | 89 | 1013.0 |
| 20260509042240 | 58 | 32 | 0.0 | 1.0 | 0.00 | 0.00 | 0.00 | 89 | 1013.1 |
| 20260509041737 | 59 | 89 | 0.0 | 1.0 | 0.00 | 0.00 | 0.00 | 89 | 1012.9 |
| 20260509041234 | 59 | 89 | 0.0 | 1.0 | 0.00 | 0.00 | 0.00 | 89 | 1013.1 |
| 20260509040732 | 59 | 89 | 1.0 | 1.0 | 0.00 | 0.00 | 0.00 | 89 | 1013.2 |
| 20260509040229 | 59 | 93 | 1.0 | 2.0 | 0.00 | 0.00 | 0.00 | 89 | 1013.3 |
| 20260509035726 | 59 | 69 | 0.0 | 1.0 | 0.00 | 0.00 | 0.00 | 89 | 1013.3 |
| 20260509035222 | 59 | 117 | 0.0 | 1.0 | 0.00 | 0.00 | 0.00 | 89 | 1013.2 |
| 20260509034720 | 59 | 52 | 1.0 | 1.0 | 0.00 | 0.00 | 0.00 | 88 | 1012.9 |
| 20260509034217 | 59 | 110 | 1.0 | 2.0 | 0.00 | 0.00 | 0.00 | 88 | 1013.0 |
| 20260509033714 | 59 | 110 | 1.0 | 2.0 | 0.00 | 0.00 | 0.00 | 88 | 1013.4 |
| 20260509033211 | 59 | 102 | 1.0 | 2.0 | 0.00 | 0.00 | 0.00 | 88 | 1013.2 |
| 20260509032708 | 59 | 55 | 0.0 | 1.0 | 0.00 | 0.00 | 0.00 | 88 | 1013.3 |
| 20260509032205 | 59 | 81 | 1.0 | 1.0 | 0.00 | 0.00 | 0.00 | 88 | 1013.4 |
| 20260509031702 | 59 | 59 | 1.0 | 2.0 | 0.00 | 0.00 | 0.00 | 88 | 1013.6 |
| 20260509031159 | 59 | 119 | 0.0 | 1.0 | 0.00 | 0.00 | 0.00 | 88 | 1013.4 |
| 20260509030658 | 59 | 125 | 1.0 | 1.0 | 0.00 | 0.00 | 0.00 | 88 | 1013.3 |
| 20260509030155 | 59 | 129 | 0.0 | 2.0 | 0.00 | 0.00 | 0.00 | 88 | 1013.1 |
| 20260509025651 | 59 | 127 | 1.0 | 2.0 | 0.00 | 0.00 | 0.00 | 87 | 1013.1 |
| 20260509025147 | 59 | 136 | 2.0 | 3.0 | 0.00 | 0.00 | 0.00 | 87 | 1012.8 |
| 20260509024642 | 59 | 89 | 1.0 | 1.0 | 0.00 | 0.00 | 0.00 | 86 | 1012.8 |
| 20260509024138 | 60 | 153 | 1.0 | 2.0 | 0.00 | 0.00 | 0.00 | 86 | 1013.0 |
| 20260509023637 | 60 | 113 | 0.0 | 1.0 | 0.00 | 0.00 | 0.00 | 86 | 1013.1 |
| 20260509023133 | 60 | 32 | 0.0 | 0.0 | 0.00 | 0.00 | 0.00 | 86 | 1013.1 |
| 20260509022629 | 60 | 26 | 1.0 | 1.0 | 0.00 | 0.00 | 0.00 | 86 | 1013.1 |
| 20260509022128 | 60 | 103 | 0.0 | 1.0 | 0.00 | 0.00 | 0.00 | 86 | 1013.0 |
| 20260509021624 | 60 | 112 | 0.0 | 1.0 | 0.00 | 0.00 | 0.00 | 86 | 1013.2 |
| 20260509021121 | 60 | 65 | 0.0 | 1.0 | 0.00 | 0.00 | 0.00 | 85 | 1013.4 |
| 20260509020620 | 60 | 242 | 0.0 | 1.0 | 0.00 | 0.00 | 0.00 | 85 | 1013.6 |
| 20260509020116 | 60 | 93 | 0.0 | 1.0 | 0.00 | 0.00 | 0.00 | 85 | 1013.3 |
| 20260509015615 | 60 | 81 | 1.0 | 2.0 | 0.00 | 0.00 | 0.00 | 85 | 1013.3 |
| 20260509015112 | 60 | 65 | 1.0 | 1.0 | 0.00 | 0.00 | 0.00 | 85 | 1013.5 |
| 20260509014608 | 60 | 131 | 1.0 | 2.0 | 0.00 | 0.00 | 0.00 | 85 | 1013.6 |
| 20260509014105 | 60 | 104 | 1.0 | 2.0 | 0.00 | 0.00 | 0.00 | 85 | 1013.3 |
| 20260509013602 | 60 | 119 | 1.0 | 3.0 | 0.00 | 0.00 | 0.00 | 85 | 1013.0 |
| 20260509013057 | 60 | 111 | 3.0 | 4.0 | 0.00 | 0.00 | 0.00 | 85 | 1013.0 |
| 20260509012555 | 60 | 131 | 2.0 | 3.0 | 0.00 | 0.00 | 0.00 | 85 | 1013.2 |
| 20260509012051 | 60 | 123 | 2.0 | 3.0 | 0.00 | 0.00 | 0.00 | 85 | 1013.1 |
| 20260509011549 | 60 | 130 | 3.0 | 3.0 | 0.00 | 0.00 | 0.00 | 84 | 1012.9 |
| 20260509011046 | 61 | 151 | 0.0 | 2.0 | 0.00 | 0.00 | 0.00 | 84 | 1012.9 |
| 20260509010544 | 61 | 121 | 1.0 | 2.0 | 0.00 | 0.00 | 0.00 | 84 | 1012.8 |
| 20260509010040 | 61 | 121 | 2.0 | 5.0 | 0.00 | 0.00 | 0.00 | 84 | 1013.1 |
| 20260509005538 | 61 | 119 | 2.0 | 3.0 | 0.00 | 0.00 | 0.00 | 83 | 1013.2 |
| 20260509005038 | 61 | 112 | 2.0 | 3.0 | 0.00 | 0.00 | 0.00 | 83 | 1013.3 |
| 20260509004535 | 61 | 115 | 3.0 | 3.0 | 0.00 | 0.00 | 0.00 | 83 | 1013.4 |
| 20260509004032 | 61 | 165 | 2.0 | 3.0 | 0.00 | 0.00 | 0.00 | 83 | 1013.4 |
| 20260509003531 | 61 | 124 | 2.0 | 3.0 | 0.00 | 0.00 | 0.00 | 82 | 1013.4 |
| 20260509003027 | 61 | 141 | 1.0 | 3.0 | 0.00 | 0.00 | 0.00 | 82 | 1013.4 |
| 20260509002525 | 62 | 146 | 2.0 | 3.0 | 0.00 | 0.00 | 0.00 | 82 | 1013.3 |
| 20260509002022 | 62 | 124 | 1.0 | 3.0 | 0.00 | 0.00 | 0.00 | 82 | 1013.3 |
| 20260509001520 | 62 | 112 | 2.0 | 3.0 | 0.00 | 0.00 | 0.00 | 82 | 1013.2 |
| 20260509001015 | 62 | 123 | 3.0 | 3.0 | 0.00 | 0.00 | 0.00 | 82 | 1013.2 |
| 20260509000514 | 62 | 112 | 2.0 | 3.0 | 0.00 | 0.00 | 0.00 | 82 | 1013.6 |
| 20260509000009 | 62 | 162 | 2.0 | 3.0 | 0.00 | 0.00 | 0.00 | 82 | 1013.6 |
| 20260508235508 | 62 | 155 | 2.0 | 3.0 | 0.00 | 0.00 | 0.00 | 83 | 1013.4 |
| 20260508235003 | 62 | 168 | 1.0 | 2.0 | 0.00 | 0.00 | 0.00 | 82 | 1013.3 |
| 20260508234501 | 62 | 110 | 2.0 | 3.0 | 0.00 | 0.00 | 0.00 | 82 | 1013.4 |
| 20260508233958 | 62 | 170 | 1.0 | 2.0 | 0.00 | 0.00 | 0.00 | 82 | 1013.8 |
| 20260508233457 | 62 | 103 | 2.0 | 2.0 | 0.00 | 0.00 | 0.00 | 82 | 1013.9 |
| 20260508232954 | 62 | 117 | 1.0 | 2.0 | 0.00 | 0.00 | 0.00 | 81 | 1014.3 |
| 20260508232451 | 63 | 107 | 0.0 | 1.0 | 0.00 | 0.00 | 0.00 | 81 | 1014.2 |
| 20260508231948 | 63 | 129 | 0.0 | 1.0 | 0.00 | 0.00 | 0.00 | 81 | 1014.2 |
| 20260508231445 | 63 | 107 | 1.0 | 2.0 | 0.00 | 0.00 | 0.00 | 81 | 1014.3 |
| 20260508230942 | 63 | 104 | 1.0 | 2.0 | 0.00 | 0.00 | 0.00 | 80 | 1014.3 |
| 20260508230439 | 63 | 110 | 1.0 | 2.0 | 0.00 | 0.00 | 0.00 | 80 | 1014.4 |
| 20260508225936 | 63 | 98 | 1.0 | 2.0 | 0.00 | 0.00 | 0.00 | 79 | 1014.5 |
| 20260508225432 | 63 | 89 | 0.0 | 1.0 | 0.00 | 0.00 | 0.00 | 79 | 1014.8 |
| 20260508224930 | 63 | 93 | 1.0 | 2.0 | 0.00 | 0.00 | 0.00 | 79 | 1014.4 |
| 20260508224427 | 63 | 104 | 0.0 | 1.0 | 0.00 | 0.00 | 0.00 | 79 | 1014.5 |
| 20260508223924 | 63 | 126 | 1.0 | 2.0 | 0.00 | 0.00 | 0.00 | 78 | 1014.5 |
| 20260508223423 | 64 | 141 | 1.0 | 2.0 | 0.00 | 0.00 | 0.00 | 78 | 1014.4 |
| 20260508222919 | 64 | 119 | 0.0 | 2.0 | 0.00 | 0.00 | 0.00 | 79 | 1014.4 |
| 20260508222417 | 64 | 141 | 2.0 | 3.0 | 0.00 | 0.00 | 0.00 | 79 | 1014.6 |
| 20260508221913 | 64 | 129 | 2.0 | 3.0 | 0.00 | 0.00 | 0.00 | 79 | 1014.6 |
| 20260508221409 | 64 | 107 | 1.0 | 3.0 | 0.00 | 0.00 | 0.00 | 79 | 1014.9 |
| 20260508220905 | 64 | 129 | 2.0 | 3.0 | 0.00 | 0.00 | 0.00 | 79 | 1014.5 |
| 20260508220402 | 64 | 117 | 0.0 | 2.0 | 0.00 | 0.00 | 0.00 | 78 | 1014.6 |
| 20260508215858 | 64 | 129 | 2.0 | 3.0 | 0.00 | 0.00 | 0.00 | 79 | 1014.6 |
| 20260508215355 | 64 | 124 | 2.0 | 3.0 | 0.00 | 0.00 | 0.00 | 77 | 1014.5 |
| 20260508214852 | 64 | 113 | 0.0 | 1.0 | 0.00 | 0.00 | 0.00 | 77 | 1014.4 |
| 20260508214350 | 64 | 89 | 1.0 | 1.0 | 0.00 | 0.00 | 0.00 | 77 | 1014.3 |
| 20260508213846 | 64 | 117 | 0.0 | 2.0 | 0.00 | 0.00 | 0.00 | 76 | 1014.5 |
| 20260508213343 | 64 | 95 | 0.0 | 1.0 | 0.00 | 0.00 | 0.00 | 76 | 1014.6 |
| 20260508212838 | 64 | 82 | 1.0 | 1.0 | 0.00 | 0.00 | 0.00 | 76 | 1014.9 |
| 20260508212336 | 64 | 133 | 1.0 | 2.0 | 0.00 | 0.00 | 0.00 | 76 | 1015.0 |
| 20260508211831 | 64 | 126 | 0.0 | 2.0 | 0.00 | 0.00 | 0.00 | 75 | 1014.6 |
| 20260508211327 | 64 | 104 | 0.0 | 1.0 | 0.00 | 0.00 | 0.00 | 75 | 1015.1 |
| 20260508210825 | 64 | 156 | 1.0 | 2.0 | 0.00 | 0.00 | 0.00 | 75 | 1014.9 |
| 20260508210321 | 64 | 106 | 0.0 | 2.0 | 0.00 | 0.00 | 0.00 | 75 | 1014.9 |
| 20260508205818 | 64 | 110 | 0.0 | 2.0 | 0.00 | 0.00 | 0.00 | 75 | 1014.9 |
| 20260508205314 | 64 | 115 | 1.0 | 2.0 | 0.00 | 0.00 | 0.00 | 74 | 1015.1 |
| 20260508204811 | 64 | 140 | 2.0 | 3.0 | 0.00 | 0.00 | 0.00 | 75 | 1015.2 |
| 20260508204308 | 64 | 130 | 3.0 | 3.0 | 0.00 | 0.00 | 0.00 | 75 | 1015.3 |
| 20260508203804 | 64 | 164 | 2.0 | 4.0 | 0.00 | 0.00 | 0.00 | 74 | 1015.1 |
| 20260508203300 | 64 | 164 | 3.0 | 3.0 | 0.00 | 0.00 | 0.00 | 74 | 1015.2 |
| 20260508202755 | 64 | 158 | 2.0 | 2.0 | 0.00 | 0.00 | 0.00 | 73 | 1015.1 |
| 20260508202253 | 64 | 160 | 1.0 | 2.0 | 0.00 | 0.00 | 0.00 | 73 | 1015.2 |
| 20260508201750 | 65 | 124 | 1.0 | 5.0 | 0.00 | 0.00 | 0.00 | 73 | 1014.8 |
| 20260508201247 | 65 | 99 | 1.0 | 2.0 | 0.00 | 0.00 | 0.00 | 73 | 1015.1 |
| 20260508200744 | 65 | 127 | 0.0 | 2.0 | 0.00 | 0.00 | 0.00 | 74 | 1015.3 |
| 20260508200240 | 64 | 89 | 0.0 | 1.0 | 0.00 | 0.00 | 0.00 | 73 | 1015.5 |
| 20260508195736 | 64 | 174 | 1.0 | 2.0 | 0.00 | 0.00 | 0.00 | 72 | 1015.4 |
| 20260508195233 | 64 | 73 | 0.0 | 2.0 | 0.00 | 0.00 | 0.00 | 72 | 1015.1 |
| 20260508194730 | 64 | 147 | 1.0 | 2.0 | 0.00 | 0.00 | 0.00 | 71 | 1015.2 |
| 20260508194226 | 64 | 147 | 1.0 | 2.0 | 0.00 | 0.00 | 0.00 | 71 | 1015.2 |
| 20260508193724 | 65 | 159 | 1.0 | 2.0 | 0.00 | 0.00 | 0.00 | 72 | 1015.3 |
| 20260508193220 | 65 | 113 | 1.0 | 4.0 | 0.00 | 0.00 | 0.00 | 70 | 1015.3 |
| 20260508192717 | 65 | 131 | 2.0 | 3.0 | 0.00 | 0.00 | 0.00 | 70 | 1015.5 |
| 20260508192214 | 65 | 141 | 2.0 | 3.0 | 0.00 | 0.00 | 0.00 | 71 | 1015.4 |
| 20260508191711 | 65 | 113 | 2.0 | 3.0 | 0.00 | 0.00 | 0.00 | 71 | 1015.7 |
| 20260508191208 | 65 | 107 | 1.0 | 4.0 | 0.00 | 0.00 | 0.00 | 71 | 1015.5 |
| 20260508190705 | 65 | 109 | 0.0 | 4.0 | 0.00 | 0.00 | 0.00 | 71 | 1015.4 |
| 20260508190201 | 65 | 75 | 0.0 | 1.0 | 0.00 | 0.00 | 0.00 | 70 | 1015.4 |
| 20260508185658 | 65 | 112 | 2.0 | 2.0 | 0.00 | 0.00 | 0.00 | 70 | 1015.5 |
| 20260508185155 | 65 | 165 | 1.0 | 2.0 | 0.00 | 0.00 | 0.00 | 69 | 1015.3 |
| 20260508184653 | 65 | 132 | 3.0 | 5.0 | 0.00 | 0.00 | 0.00 | 68 | 1015.1 |
| 20260508184150 | 65 | 109 | 3.0 | 5.0 | 0.00 | 0.00 | 0.00 | 69 | 1015.4 |
| 20260508183646 | 65 | 111 | 1.0 | 4.0 | 0.00 | 0.00 | 0.00 | 69 | 1015.5 |
| 20260508183142 | 65 | 121 | 2.0 | 3.0 | 0.00 | 0.00 | 0.00 | 68 | 1015.7 |
| 20260508182639 | 65 | 160 | 1.0 | 3.0 | 0.00 | 0.00 | 0.00 | 69 | 1015.9 |
| 20260508182135 | 65 | 175 | 2.0 | 3.0 | 0.00 | 0.00 | 0.00 | 68 | 1016.0 |
| 20260508181631 | 65 | 55 | 0.0 | 2.0 | 0.00 | 0.00 | 0.00 | 68 | 1015.8 |
| 20260508181128 | 65 | 114 | 1.0 | 3.0 | 0.00 | 0.00 | 0.00 | 67 | 1015.8 |
| 20260508180625 | 65 | 108 | 1.0 | 4.0 | 0.00 | 0.00 | 0.00 | 68 | 1016.1 |
| 20260508180122 | 65 | 115 | 1.0 | 3.0 | 0.00 | 0.00 | 0.00 | 67 | 1016.4 |
| 20260508175618 | 65 | 120 | 1.0 | 2.0 | 0.00 | 0.00 | 0.00 | 67 | 1016.2 |
| 20260508175115 | 65 | 98 | 2.0 | 3.0 | 0.00 | 0.00 | 0.00 | 67 | 1016.3 |
| 20260508174613 | 65 | 122 | 1.0 | 2.0 | 0.00 | 0.00 | 0.00 | 66 | 1016.4 |
| 20260508174109 | 65 | 145 | 0.0 | 3.0 | 0.00 | 0.00 | 0.00 | 65 | 1016.8 |
| 20260508173606 | 65 | 117 | 2.0 | 4.0 | 0.00 | 0.00 | 0.00 | 64 | 1016.6 |
| 20260508173102 | 65 | 123 | 2.0 | 4.0 | 0.00 | 0.00 | 0.00 | 64 | 1016.7 |
| 20260508172600 | 65 | 89 | 1.0 | 3.0 | 0.00 | 0.00 | 0.00 | 64 | 1016.9 |
| 20260508172056 | 65 | 114 | 2.0 | 3.0 | 0.00 | 0.00 | 0.00 | 64 | 1017.2 |
| 20260508171553 | 65 | 113 | 1.0 | 3.0 | 0.00 | 0.00 | 0.00 | 64 | 1017.1 |
| 20260508171049 | 65 | 111 | 3.0 | 5.0 | 0.00 | 0.00 | 0.00 | 63 | 1017.0 |
| 20260508170547 | 65 | 109 | 2.0 | 3.0 | 0.00 | 0.00 | 0.00 | 63 | 1016.8 |
| 20260508170044 | 65 | 152 | 0.0 | 4.0 | 0.00 | 0.00 | 0.00 | 61 | 1017.0 |
| 20260508165541 | 65 | 142 | 3.0 | 3.0 | 0.00 | 0.00 | 0.00 | 62 | 1017.4 |
| 20260508165038 | 65 | 159 | 2.0 | 3.0 | 0.00 | 0.00 | 0.00 | 63 | 1017.3 |
| 20260508164534 | 65 | 100 | 3.0 | 4.0 | 0.00 | 0.00 | 0.00 | 62 | 1017.3 |
| 20260508164031 | 65 | 160 | 3.0 | 4.0 | 0.00 | 0.00 | 0.00 | 65 | 1017.4 |
| 20260508163529 | 65 | 114 | 2.0 | 2.0 | 0.00 | 0.00 | 0.00 | 64 | 1017.2 |
| 20260508163025 | 66 | 112 | 0.0 | 3.0 | 0.00 | 0.00 | 0.00 | 65 | 1017.5 |
| 20260508162522 | 66 | 110 | 2.0 | 3.0 | 0.00 | 0.00 | 0.00 | 64 | 1017.6 |
| 20260508162019 | 66 | 107 | 1.0 | 3.0 | 0.00 | 0.00 | 0.00 | 63 | 1017.8 |
| 20260508161516 | 66 | 112 | 2.0 | 4.0 | 0.00 | 0.00 | 0.00 | 65 | 1017.4 |
| 20260508161013 | 65 | 82 | 1.0 | 4.0 | 0.00 | 0.00 | 0.00 | 65 | 1017.5 |
| 20260508160512 | 65 | 142 | 3.0 | 7.0 | 0.00 | 0.00 | 0.00 | 65 | 1017.5 |
| 20260508160008 | 65 | 113 | 4.0 | 5.0 | 0.00 | 0.00 | 0.00 | 63 | 1017.8 |
| 20260508155505 | 65 | 115 | 3.0 | 5.0 | 0.00 | 0.00 | 0.00 | 65 | 1017.5 |
| 20260508155002 | 64 | 112 | 3.0 | 7.0 | 0.00 | 0.00 | 0.00 | 66 | 1017.6 |
| 20260508154500 | 64 | 112 | 3.0 | 5.0 | 0.00 | 0.00 | 0.00 | 66 | 1017.9 |
| 20260508153956 | 64 | 108 | 2.0 | 5.0 | 0.00 | 0.00 | 0.00 | 66 | 1018.3 |
| 20260508153453 | 64 | 131 | 2.0 | 4.0 | 0.00 | 0.00 | 0.00 | 70 | 1018.1 |
| 20260508152949 | 64 | 95 | 1.0 | 2.0 | 0.00 | 0.00 | 0.00 | 72 | 1018.0 |
| 20260508152446 | 64 | 110 | 2.0 | 4.0 | 0.00 | 0.00 | 0.00 | 73 | 1018.1 |
| 20260508151942 | 64 | 94 | 3.0 | 6.0 | 0.00 | 0.00 | 0.00 | 73 | 1017.9 |
| 20260508151439 | 63 | 79 | 0.0 | 3.0 | 0.00 | 0.00 | 0.00 | 75 | 1018.0 |
| 20260508150935 | 63 | 46 | 1.0 | 4.0 | 0.00 | 0.00 | 0.00 | 75 | 1017.9 |
| 20260508150432 | 63 | 89 | 2.0 | 2.0 | 0.00 | 0.00 | 0.00 | 75 | 1017.9 |
| 20260508145928 | 63 | 98 | 2.0 | 3.0 | 0.00 | 0.00 | 0.00 | 78 | 1017.7 |
| 20260508145425 | 62 | 91 | 2.0 | 4.0 | 0.00 | 0.00 | 0.00 | 78 | 1017.8 |
| 20260508144921 | 62 | 89 | 0.0 | 6.0 | 0.00 | 0.00 | 0.00 | 78 | 1017.8 |
| 20260508144419 | 62 | 89 | 1.0 | 3.0 | 0.00 | 0.00 | 0.00 | 78 | 1017.9 |
| 20260508143917 | 61 | 94 | 1.0 | 2.0 | 0.00 | 0.00 | 0.00 | 79 | 1017.9 |
| 20260508143414 | 61 | 109 | 0.0 | 4.0 | 0.00 | 0.00 | 0.00 | 78 | 1018.0 |
| 20260508142910 | 61 | 117 | 2.0 | 3.0 | 0.00 | 0.00 | 0.00 | 79 | 1018.1 |
| 20260508142408 | 61 | 121 | 3.0 | 4.0 | 0.00 | 0.00 | 0.00 | 82 | 1018.1 |
| 20260508141904 | 61 | 76 | 2.0 | 3.0 | 0.00 | 0.00 | 0.00 | 83 | 1017.9 |
| 20260508141400 | 61 | 93 | 2.0 | 2.0 | 0.00 | 0.00 | 0.00 | 84 | 1018.4 |
| 20260508140858 | 60 | 129 | 0.0 | 2.0 | 0.00 | 0.00 | 0.00 | 84 | 1018.5 |
| 20260508140355 | 60 | 101 | 2.0 | 4.0 | 0.00 | 0.00 | 0.00 | 84 | 1018.2 |
| 20260508135850 | 60 | 116 | 2.0 | 3.0 | 0.00 | 0.00 | 0.00 | 86 | 1018.3 |
| 20260508135347 | 60 | 112 | 2.0 | 2.0 | 0.00 | 0.00 | 0.00 | 88 | 1018.3 |
| 20260508134843 | 59 | 69 | 0.0 | 2.0 | 0.00 | 0.00 | 0.00 | 88 | 1018.6 |
| 20260508134340 | 59 | 89 | 0.0 | 2.0 | 0.00 | 0.00 | 0.00 | 89 | 1018.5 |
| 20260508133837 | 59 | 75 | 0.0 | 1.0 | 0.00 | 0.00 | 0.00 | 89 | 1018.7 |
| 20260508133335 | 58 | 115 | 2.0 | 2.0 | 0.00 | 0.00 | 0.00 | 90 | 1018.6 |
| 20260508132832 | 58 | 127 | 0.0 | 1.0 | 0.00 | 0.00 | 0.00 | 90 | 1018.7 |
| 20260508132329 | 58 | 129 | 0.0 | 2.0 | 0.00 | 0.00 | 0.00 | 90 | 1018.7 |
| 20260508131826 | 58 | 77 | 0.0 | 2.0 | 0.00 | 0.00 | 0.00 | 91 | 1018.5 |
| 20260508131321 | 57 | 57 | 1.0 | 2.0 | 0.00 | 0.00 | 0.00 | 91 | 1018.6 |
| 20260508130818 | 57 | 95 | 1.0 | 2.0 | 0.00 | 0.00 | 0.00 | 91 | 1018.6 |
| 20260508130315 | 57 | 75 | 0.0 | 1.0 | 0.00 | 0.00 | 0.00 | 91 | 1018.7 |
| 20260508125811 | 56 | 78 | 1.0 | 1.0 | 0.00 | 0.00 | 0.00 | 92 | 1018.6 |
| 20260508125308 | 56 | 67 | 0.0 | 2.0 | 0.00 | 0.00 | 0.00 | 92 | 1018.5 |
| 20260508124806 | 56 | 55 | 1.0 | 2.0 | 0.00 | 0.00 | 0.00 | 92 | 1018.5 |
| 20260508124303 | 55 | 52 | 0.0 | 2.0 | 0.00 | 0.00 | 0.00 | 92 | 1018.5 |
| 20260508123801 | 55 | 78 | 0.0 | 2.0 | 0.00 | 0.00 | 0.00 | 92 | 1018.4 |
| 20260508123259 | 55 | 97 | 0.0 | 2.0 | 0.00 | 0.00 | 0.00 | 92 | 1018.5 |
| 20260508122755 | 55 | 71 | 0.0 | 2.0 | 0.00 | 0.00 | 0.00 | 92 | 1018.3 |
| 20260508122252 | 55 | 88 | 2.0 | 3.0 | 0.00 | 0.00 | 0.00 | 92 | 1018.3 |
| 20260508121749 | 55 | 51 | 2.0 | 2.0 | 0.00 | 0.00 | 0.00 | 92 | 1018.3 |
| 20260508121248 | 55 | 73 | 0.0 | 2.0 | 0.00 | 0.00 | 0.00 | 92 | 1018.3 |
| 20260508120744 | 55 | 37 | 0.0 | 2.0 | 0.00 | 0.00 | 0.00 | 92 | 1018.0 |
| 20260508120243 | 55 | 39 | 1.0 | 3.0 | 0.00 | 0.00 | 0.00 | 92 | 1018.0 |
| 20260508115740 | 55 | 58 | 0.0 | 2.0 | 0.00 | 0.00 | 0.00 | 92 | 1017.8 |
| 20260508115237 | 54 | 66 | 1.0 | 2.0 | 0.00 | 0.00 | 0.00 | 92 | 1017.6 |
| 20260508114727 | 54 | 55 | 1.0 | 2.0 | 0.00 | 0.00 | 0.00 | 92 | 1017.8 |
| 20260508114224 | 54 | 119 | 0.0 | 1.0 | 0.00 | 0.00 | 0.00 | 92 | 1017.5 |
| 20260508113721 | 54 | 89 | 0.0 | 1.0 | 0.00 | 0.00 | 0.00 | 92 | 1017.4 |
| 20260508113220 | 54 | 89 | 1.0 | 1.0 | 0.00 | 0.00 | 0.00 | 92 | 1017.4 |
| 20260508112715 | 54 | 91 | 1.0 | 2.0 | 0.00 | 0.00 | 0.00 | 92 | 1017.3 |
| 20260508112212 | 54 | 93 | 1.0 | 2.0 | 0.00 | 0.00 | 0.00 | 92 | 1017.3 |
| 20260508111709 | 54 | 93 | 1.0 | 2.0 | 0.00 | 0.00 | 0.00 | 92 | 1017.2 |
| 20260508111207 | 54 | 54 | 0.0 | 2.0 | 0.00 | 0.00 | 0.00 | 92 | 1017.0 |
| 20260508110704 | 54 | 93 | 1.0 | 2.0 | 0.00 | 0.00 | 0.00 | 92 | 1017.2 |
| 20260508110200 | 55 | 98 | 1.0 | 2.0 | 0.00 | 0.00 | 0.00 | 92 | 1017.0 |
| 20260508105655 | 54 | 97 | 1.0 | 2.0 | 0.00 | 0.00 | 0.00 | 92 | 1016.8 |